Time;durP1;ratioP1;P1;durP2;ratioP2;P2;SDS_P1;SDS_P2;PMS_P1;PMS_P2;Temp;Humidity;BMP_temperature;BMP_pressure;BME280_temperature;BME280_humidity;BME280_pressure;Samples;Min_cycle;Max_cycle;Signal;HPM_P1;HPM_P2
2024/03/22 00:00:05;;;;;;;21.80;11.63;;;8.20;99.90;;;;;;4956154;28;20118;-77
2024/03/22 00:02:31;;;;;;;22.33;12.00;;;8.20;99.90;;;;;;4965522;28;20062;-77
2024/03/22 00:04:56;;;;;;;21.02;11.52;;;8.20;99.90;;;;;;4961077;28;20065;-78
2024/03/22 00:07:22;;;;;;;21.30;12.02;;;8.20;99.90;;;;;;4965685;28;20530;-78
2024/03/22 00:09:47;;;;;;;18.88;11.50;;;8.20;99.90;;;;;;4954026;28;20042;-78
2024/03/22 00:12:13;;;;;;;24.25;12.82;;;8.20;99.90;;;;;;4961545;28;20090;-79
2024/03/22 00:14:38;;;;;;;21.67;12.73;;;8.30;99.90;;;;;;4970539;28;20486;-79
2024/03/22 00:17:04;;;;;;;20.15;13.05;;;8.30;99.90;;;;;;4980532;28;20598;-78
2024/03/22 00:19:29;;;;;;;20.10;12.60;;;8.30;99.90;;;;;;4951439;28;20063;-79
2024/03/22 00:21:55;;;;;;;23.23;12.68;;;8.30;99.90;;;;;;4952085;28;20024;-79
2024/03/22 00:24:20;;;;;;;20.20;12.52;;;8.30;99.90;;;;;;4954454;28;20030;-77
2024/03/22 00:26:46;;;;;;;18.08;12.40;;;8.30;99.90;;;;;;4971865;28;20093;-77
2024/03/22 00:29:11;;;;;;;21.98;12.95;;;8.30;99.90;;;;;;4985459;28;20030;-78
2024/03/22 00:31:37;;;;;;;22.60;13.65;;;8.30;99.90;;;;;;4963682;28;20023;-77
2024/03/22 00:34:02;;;;;;;27.13;14.57;;;8.30;99.90;;;;;;4957290;28;20031;-78
2024/03/22 00:36:28;;;;;;;23.05;14.32;;;8.40;99.90;;;;;;4951199;28;20020;-77
2024/03/22 00:38:53;;;;;;;27.35;14.27;;;8.30;99.90;;;;;;4963500;28;20026;-77
2024/03/22 00:41:19;;;;;;;21.77;13.00;;;8.40;99.90;;;;;;4953432;28;20538;-77
2024/03/22 00:43:44;;;;;;;24.08;14.57;;;8.40;99.90;;;;;;4965952;28;20548;-78
2024/03/22 00:46:15;;;;;;;21.55;12.55;;;8.40;99.90;;;;;;4953655;28;20030;-78
2024/03/22 00:48:44;;;;;;;27.13;16.23;;;8.40;99.90;;;;;;4974371;28;20038;-78
2024/03/22 00:51:10;;;;;;;28.02;15.40;;;8.40;99.90;;;;;;4960872;28;20034;-78
2024/03/22 00:53:39;;;;;;;25.95;15.10;;;8.40;99.90;;;;;;4962187;28;20030;-78
2024/03/22 00:56:07;;;;;;;27.02;15.98;;;8.40;99.90;;;;;;4967557;28;20023;-78
2024/03/22 00:58:36;;;;;;;28.15;16.52;;;8.50;99.90;;;;;;4976034;28;20062;-78
2024/03/22 01:01:01;;;;;;;30.45;17.98;;;8.50;99.90;;;;;;4971668;28;20498;-78
2024/03/22 01:03:30;;;;;;;27.45;15.85;;;8.50;99.90;;;;;;4982487;28;20117;-78
2024/03/22 01:05:58;;;;;;;28.77;17.27;;;8.50;99.90;;;;;;4967481;28;20045;-78
2024/03/22 01:08:24;;;;;;;34.50;17.95;;;8.50;99.90;;;;;;4984980;28;20104;-78
2024/03/22 01:10:52;;;;;;;34.30;18.45;;;8.50;99.90;;;;;;4956635;28;20122;-78
2024/03/22 01:13:20;;;;;;;30.35;17.67;;;8.50;99.90;;;;;;4957520;28;20042;-77
2024/03/22 01:15:47;;;;;;;37.53;19.67;;;8.60;99.90;;;;;;4969369;28;20030;-77
2024/03/22 01:18:15;;;;;;;30.88;17.55;;;8.50;99.90;;;;;;4956634;28;20019;-78
2024/03/22 01:20:44;;;;;;;31.70;18.70;;;8.50;99.90;;;;;;4963117;28;20502;-78
2024/03/22 01:23:09;;;;;;;31.88;19.75;;;8.60;99.90;;;;;;4958970;28;20029;-78
2024/03/22 01:25:35;;;;;;;33.35;18.48;;;8.60;99.90;;;;;;4964802;28;20027;-78
2024/03/22 01:28:01;;;;;;;31.77;18.02;;;8.60;99.90;;;;;;4953187;28;20398;-78
2024/03/22 01:30:28;;;;;;;34.20;19.17;;;8.60;99.90;;;;;;4956697;28;20035;-78
2024/03/22 01:32:55;;;;;;;38.08;20.23;;;8.60;99.90;;;;;;4976916;28;20035;-77
2024/03/22 01:35:21;;;;;;;30.50;18.80;;;8.60;99.90;;;;;;4970270;28;20102;-78
2024/03/22 01:37:46;;;;;;;33.47;19.80;;;8.60;99.90;;;;;;4964126;28;20090;-78
2024/03/22 01:40:13;;;;;;;35.65;21.52;;;8.60;99.90;;;;;;4954015;28;20020;-78
2024/03/22 01:42:39;;;;;;;36.75;20.88;;;8.60;99.90;;;;;;4962366;28;20429;-78
2024/03/22 01:45:06;;;;;;;36.83;21.60;;;8.60;99.90;;;;;;4961863;28;20089;-78
2024/03/22 01:47:34;;;;;;;37.85;21.88;;;8.60;99.90;;;;;;4972714;28;20417;-78
2024/03/22 01:50:02;;;;;;;38.80;21.98;;;8.70;99.90;;;;;;4956919;28;20509;-78
2024/03/22 01:52:28;;;;;;;34.45;20.98;;;8.70;99.90;;;;;;4958652;28;20439;-77
2024/03/22 01:54:53;;;;;;;37.17;21.27;;;8.70;99.90;;;;;;4963191;28;20093;-78
2024/03/22 01:57:19;;;;;;;42.85;22.75;;;8.70;99.90;;;;;;4953862;28;20015;-78
2024/03/22 01:59:48;;;;;;;38.25;22.73;;;8.70;99.90;;;;;;4965245;28;20142;-77
2024/03/22 02:02:13;;;;;;;42.08;22.65;;;8.70;99.90;;;;;;4969224;28;20081;-78
2024/03/22 02:04:39;;;;;;;46.67;24.60;;;8.70;99.90;;;;;;4970798;28;20027;-78
2024/03/22 02:07:05;;;;;;;39.55;23.80;;;8.70;99.90;;;;;;4969495;28;20019;-78
2024/03/22 02:09:31;;;;;;;43.17;23.85;;;8.70;99.90;;;;;;4966327;28;20023;-78
2024/03/22 02:11:58;;;;;;;41.88;25.77;;;8.80;99.90;;;;;;4983721;28;20019;-78
2024/03/22 02:14:23;;;;;;;46.30;25.42;;;8.80;99.90;;;;;;4962561;28;20186;-78
2024/03/22 02:16:49;;;;;;;46.55;26.77;;;8.80;99.90;;;;;;4984157;28;20027;-78
2024/03/22 02:19:14;;;;;;;47.80;26.48;;;8.80;99.90;;;;;;4973271;28;20023;-78
2024/03/22 02:21:40;;;;;;;52.13;28.20;;;8.80;99.90;;;;;;4958510;28;20477;-78
2024/03/22 02:24:07;;;;;;;49.92;28.98;;;8.90;99.90;;;;;;4976991;28;20349;-78
2024/03/22 02:26:32;;;;;;;52.20;29.42;;;8.90;99.90;;;;;;4959560;28;20019;-77
2024/03/22 02:28:58;;;;;;;50.88;29.30;;;8.90;99.90;;;;;;4957737;28;20486;-78
2024/03/22 02:31:25;;;;;;;53.33;30.23;;;8.90;99.90;;;;;;4961671;28;20023;-78
2024/03/22 02:33:51;;;;;;;46.17;27.30;;;8.90;99.90;;;;;;4971298;28;20038;-78
2024/03/22 02:36:17;;;;;;;57.72;31.48;;;8.90;99.90;;;;;;4956468;28;20390;-78
2024/03/22 02:38:42;;;;;;;56.28;31.95;;;9.00;99.90;;;;;;4958969;28;20039;-78
2024/03/22 02:41:11;;;;;;;50.70;29.05;;;9.00;99.90;;;;;;4971989;28;20023;-78
2024/03/22 02:43:36;;;;;;;56.25;32.42;;;9.00;99.90;;;;;;4960675;28;20023;-78
2024/03/22 02:46:02;;;;;;;55.80;30.83;;;9.00;99.90;;;;;;4956034;28;20508;-77
2024/03/22 02:48:28;;;;;;;59.22;32.20;;;9.00;99.90;;;;;;4972133;28;20481;-78
2024/03/22 02:51:00;;;;;;;62.60;34.95;;;9.00;99.90;;;;;;4960932;28;20070;-78
2024/03/22 02:53:29;;;;;;;61.05;33.00;;;9.00;99.90;;;;;;4960853;28;20053;-78
2024/03/22 02:55:55;;;;;;;59.40;32.15;;;9.00;99.90;;;;;;4966673;28;20034;-77
2024/03/22 02:58:23;;;;;;;58.75;32.95;;;9.00;99.90;;;;;;4959099;28;20015;-77
2024/03/22 03:00:49;;;;;;;53.50;32.05;;;9.10;99.90;;;;;;4984130;28;20030;-78
2024/03/22 03:03:18;;;;;;;64.72;35.22;;;9.10;99.90;;;;;;4956331;28;20035;-77
2024/03/22 03:05:44;;;;;;;59.03;32.45;;;9.10;99.90;;;;;;4967583;28;20034;-78
2024/03/22 03:08:10;;;;;;;61.15;32.72;;;9.10;99.90;;;;;;4966674;28;20039;-78
2024/03/22 03:10:39;;;;;;;63.40;34.67;;;9.10;99.90;;;;;;4970921;28;20019;-78
2024/03/22 03:13:10;;;;;;;60.22;32.90;;;9.20;99.90;;;;;;4959828;28;20035;-78
2024/03/22 03:15:36;;;;;;;66.30;35.90;;;9.20;99.90;;;;;;4965776;28;20554;-78
2024/03/22 03:18:04;;;;;;;63.20;35.13;;;9.10;99.90;;;;;;4966434;28;20235;-78
2024/03/22 03:20:32;;;;;;;58.63;32.58;;;9.20;99.90;;;;;;4968381;28;20478;-77
2024/03/22 03:22:59;;;;;;;56.05;31.38;;;9.20;99.90;;;;;;4966881;28;20402;-78
2024/03/22 03:25:27;;;;;;;57.92;32.17;;;9.20;99.90;;;;;;4983479;28;20023;-77
2024/03/22 03:27:53;;;;;;;59.58;33.08;;;9.20;99.90;;;;;;4971305;28;20038;-78
2024/03/22 03:30:19;;;;;;;63.40;34.42;;;9.20;99.90;;;;;;4968480;28;20030;-78
2024/03/22 03:32:44;;;;;;;65.07;34.65;;;9.20;99.90;;;;;;4979925;28;20450;-78
2024/03/22 03:35:10;;;;;;;64.32;34.45;;;9.20;99.90;;;;;;4963381;28;20031;-78
2024/03/22 03:37:36;;;;;;;62.15;34.53;;;9.20;99.90;;;;;;4960956;28;20038;-78
2024/03/22 03:40:02;;;;;;;57.53;33.42;;;9.20;99.90;;;;;;4961709;28;20029;-78
2024/03/22 03:42:27;;;;;;;58.67;33.63;;;9.20;99.90;;;;;;4967017;28;20308;-77
2024/03/22 03:44:53;;;;;;;59.70;33.78;;;9.20;99.90;;;;;;4970756;28;20548;-78
2024/03/22 03:47:19;;;;;;;63.40;34.83;;;9.20;99.90;;;;;;4962133;28;20042;-78
2024/03/22 03:49:48;;;;;;;62.00;33.75;;;9.30;99.90;;;;;;4965817;28;20031;-78
2024/03/22 03:52:16;;;;;;;60.75;32.90;;;9.20;99.90;;;;;;4967163;28;20319;-78
2024/03/22 03:54:44;;;;;;;60.90;33.40;;;9.20;99.90;;;;;;4958689;28;20065;-78
2024/03/22 03:57:10;;;;;;;60.28;33.25;;;9.30;99.90;;;;;;4962609;28;20386;-78
2024/03/22 03:59:36;;;;;;;56.88;31.63;;;9.30;99.90;;;;;;4980579;28;20090;-78
2024/03/22 04:02:02;;;;;;;56.88;32.53;;;9.30;99.90;;;;;;4959125;28;20520;-78
2024/03/22 04:04:28;;;;;;;57.08;29.27;;;9.30;99.90;;;;;;4973869;28;20042;-78
2024/03/22 04:06:54;;;;;;;58.28;32.88;;;9.30;99.90;;;;;;4970954;28;20110;-78
2024/03/22 04:09:19;;;;;;;59.30;31.98;;;9.20;99.90;;;;;;4967204;28;20501;-78
2024/03/22 04:11:45;;;;;;;57.58;32.65;;;9.20;99.90;;;;;;4982495;28;20469;-78
2024/03/22 04:14:14;;;;;;;50.33;30.17;;;9.20;99.90;;;;;;4967024;28;20053;-78
2024/03/22 04:16:39;;;;;;;53.53;31.33;;;9.20;99.90;;;;;;4964809;28;20031;-78
2024/03/22 04:19:05;;;;;;;60.42;32.72;;;9.20;99.90;;;;;;4965809;28;20473;-78
2024/03/22 04:21:31;;;;;;;56.15;32.03;;;9.20;99.90;;;;;;4963304;28;20371;-78
2024/03/22 04:24:00;;;;;;;58.83;32.03;;;9.20;99.90;;;;;;4963857;28;20454;-77
2024/03/22 04:26:26;;;;;;;56.45;30.45;;;9.20;99.90;;;;;;4966292;28;20119;-78
2024/03/22 04:28:52;;;;;;;56.80;30.52;;;9.20;99.90;;;;;;4965058;28;20119;-78
2024/03/22 04:31:17;;;;;;;56.05;30.65;;;9.20;99.90;;;;;;4959910;28;20533;-78
2024/03/22 04:33:43;;;;;;;55.38;32.25;;;9.20;99.90;;;;;;4976335;28;20042;-78
2024/03/22 04:36:09;;;;;;;56.15;32.75;;;9.20;99.90;;;;;;4961768;28;20034;-78
2024/03/22 04:38:35;;;;;;;56.38;32.40;;;9.20;99.90;;;;;;4981386;28;20396;-78
2024/03/22 04:41:01;;;;;;;55.30;30.00;;;9.20;99.90;;;;;;4981059;28;20034;-78
2024/03/22 04:43:28;;;;;;;55.95;31.65;;;9.30;99.90;;;;;;4970333;28;20015;-78
2024/03/22 04:45:54;;;;;;;51.63;30.98;;;9.20;99.90;;;;;;4962998;28;20029;-78
2024/03/22 04:48:22;;;;;;;51.75;29.65;;;9.30;99.90;;;;;;4972140;28;20031;-78
2024/03/22 04:50:51;;;;;;;55.92;31.02;;;9.20;99.90;;;;;;4962009;28;20031;-78
2024/03/22 04:53:19;;;;;;;54.37;30.33;;;9.20;99.90;;;;;;4963283;28;20034;-78
2024/03/22 04:55:45;;;;;;;51.67;31.88;;;9.30;99.90;;;;;;4959839;28;20364;-78
2024/03/22 04:58:14;;;;;;;57.90;33.22;;;9.30;99.90;;;;;;4983230;28;20019;-78
2024/03/22 05:00:41;;;;;;;55.75;30.45;;;9.30;99.90;;;;;;4958323;28;20035;-78
2024/03/22 05:03:07;;;;;;;57.03;31.85;;;9.30;99.90;;;;;;4959830;28;20102;-78
2024/03/22 05:05:34;;;;;;;53.97;30.20;;;9.30;99.90;;;;;;4972384;28;20113;-77
2024/03/22 05:08:00;;;;;;;49.22;28.83;;;9.30;99.90;;;;;;4965926;28;20050;-78
2024/03/22 05:10:26;;;;;;;57.15;31.40;;;9.30;99.90;;;;;;4962264;28;20521;-77
2024/03/22 05:12:52;;;;;;;57.17;31.15;;;9.30;99.90;;;;;;4972260;28;20126;-78
2024/03/22 05:15:17;;;;;;;50.47;29.25;;;9.30;99.90;;;;;;4986954;28;20031;-78
2024/03/22 05:17:43;;;;;;;52.80;29.77;;;9.30;99.90;;;;;;4965331;28;20045;-78
2024/03/22 05:20:10;;;;;;;58.00;29.80;;;9.40;99.90;;;;;;4967517;28;20074;-78
2024/03/22 05:22:39;;;;;;;52.45;27.77;;;9.40;99.90;;;;;;4957952;28;20020;-78
2024/03/22 05:25:05;;;;;;;58.22;30.00;;;9.40;99.90;;;;;;4957723;28;20478;-78
2024/03/22 05:27:32;;;;;;;53.95;29.23;;;9.40;99.90;;;;;;4965177;28;20024;-78
2024/03/22 05:29:58;;;;;;;49.28;29.52;;;9.40;99.90;;;;;;4970866;28;20035;-78
2024/03/22 05:32:25;;;;;;;51.88;29.42;;;9.40;99.90;;;;;;4981903;28;20482;-78
2024/03/22 05:34:52;;;;;;;58.65;30.88;;;9.40;99.90;;;;;;4969045;28;20334;-78
2024/03/22 05:37:17;;;;;;;50.67;27.85;;;9.50;99.90;;;;;;4965331;28;20508;-78
2024/03/22 05:39:43;;;;;;;53.17;28.88;;;9.50;99.90;;;;;;4982809;28;20031;-78
2024/03/22 05:42:09;;;;;;;50.97;27.85;;;9.50;99.90;;;;;;4969217;28;20023;-79
2024/03/22 05:44:34;;;;;;;52.83;29.25;;;9.50;99.90;;;;;;4963215;28;20220;-78
2024/03/22 05:47:00;;;;;;;52.20;28.25;;;9.50;99.90;;;;;;4969775;28;20093;-78
2024/03/22 05:49:26;;;;;;;49.15;27.48;;;9.60;99.90;;;;;;4972024;28;20030;-78
2024/03/22 05:51:52;;;;;;;48.85;28.05;;;9.60;99.90;;;;;;4968073;28;20039;-78
2024/03/22 05:54:18;;;;;;;48.75;27.88;;;9.60;99.90;;;;;;4983796;28;20507;-78
2024/03/22 05:56:44;;;;;;;48.22;27.92;;;9.60;99.90;;;;;;4961070;28;20049;-79
2024/03/22 05:59:10;;;;;;;49.38;28.38;;;9.60;99.90;;;;;;4970317;28;20065;-79
2024/03/22 06:01:36;;;;;;;53.65;28.90;;;9.70;99.90;;;;;;4967451;28;20011;-79
2024/03/22 06:04:01;;;;;;;56.03;29.20;;;9.70;99.90;;;;;;4960895;28;20031;-79
2024/03/22 06:06:27;;;;;;;49.60;27.38;;;9.70;99.90;;;;;;4967192;28;20035;-79
2024/03/22 06:08:54;;;;;;;53.10;28.10;;;9.80;99.90;;;;;;4961625;28;20027;-79
2024/03/22 06:11:23;;;;;;;50.33;28.55;;;9.80;99.90;;;;;;4966635;28;20027;-79
2024/03/22 06:13:50;;;;;;;52.45;28.92;;;9.90;99.90;;;;;;4967297;28;20492;-79
2024/03/22 06:16:19;;;;;;;53.35;28.80;;;9.90;99.90;;;;;;4970996;28;20027;-79
2024/03/22 06:18:45;;;;;;;53.78;29.98;;;9.90;99.90;;;;;;4979745;28;20027;-79
2024/03/22 06:21:14;;;;;;;49.30;27.30;;;10.00;99.90;;;;;;4973811;28;20030;-79
2024/03/22 06:23:41;;;;;;;53.30;29.95;;;10.00;99.90;;;;;;4964288;28;20023;-79
2024/03/22 06:26:09;;;;;;;52.03;28.73;;;10.00;99.90;;;;;;4975824;28;20039;-79
2024/03/22 06:28:35;;;;;;;50.00;27.25;;;10.10;99.90;;;;;;4984872;28;20034;-79
2024/03/22 06:31:01;;;;;;;53.22;28.42;;;10.20;99.90;;;;;;4973556;28;20038;-80
2024/03/22 06:33:27;;;;;;;59.40;30.27;;;10.20;99.90;;;;;;4963864;28;20030;-79
2024/03/22 06:35:53;;;;;;;53.78;29.10;;;10.30;99.90;;;;;;4962197;28;20027;-79
2024/03/22 06:38:18;;;;;;;56.50;28.90;;;10.30;99.90;;;;;;4963173;28;20485;-80
2024/03/22 06:40:45;;;;;;;53.00;28.70;;;10.40;99.90;;;;;;4967221;28;20031;-79
2024/03/22 06:43:10;;;;;;;61.58;30.88;;;10.40;99.90;;;;;;4972996;28;20027;-79
2024/03/22 06:45:39;;;;;;;53.67;30.02;;;10.40;99.90;;;;;;4969992;28;20038;-80
2024/03/22 06:48:04;;;;;;;51.47;29.10;;;10.50;99.90;;;;;;4977295;28;20103;-79
2024/03/22 06:53:52;;;;;;;54.95;29.83;;;10.50;99.90;;;;;;4950670;28;20077;-79
2024/03/22 06:56:17;;;;;;;55.45;29.98;;;10.50;99.90;;;;;;4961062;28;20035;-80
2024/03/22 06:58:45;;;;;;;53.35;30.08;;;10.60;99.90;;;;;;4969234;28;20023;-79
2024/03/22 07:01:11;;;;;;;55.95;27.95;;;10.60;99.90;;;;;;4968953;28;20034;-79
2024/03/22 07:03:37;;;;;;;53.15;30.45;;;10.60;99.90;;;;;;4966645;28;20066;-80
2024/03/22 07:06:04;;;;;;;57.22;29.67;;;10.70;99.90;;;;;;4965627;28;20042;-79
2024/03/22 07:08:30;;;;;;;53.20;29.55;;;10.70;99.90;;;;;;4965600;28;20023;-79
2024/03/22 07:10:56;;;;;;;52.55;30.20;;;10.70;99.90;;;;;;4966177;28;20038;-79
2024/03/22 07:13:21;;;;;;;59.55;29.38;;;10.80;99.90;;;;;;4955229;28;20501;-79
2024/03/22 07:15:47;;;;;;;57.40;30.23;;;10.90;99.90;;;;;;4985386;28;20061;-79
2024/03/22 07:18:14;;;;;;;51.95;27.77;;;10.90;99.90;;;;;;4968031;28;20020;-79
2024/03/22 07:20:41;;;;;;;52.03;29.48;;;10.90;99.90;;;;;;4969173;28;20015;-79
2024/03/22 07:23:07;;;;;;;52.45;28.95;;;11.00;99.90;;;;;;4967414;28;20442;-79
2024/03/22 07:25:33;;;;;;;46.15;28.08;;;11.00;99.90;;;;;;4959974;28;20035;-79
2024/03/22 07:27:59;;;;;;;49.13;27.33;;;11.10;99.90;;;;;;4955860;28;20042;-79
2024/03/22 07:30:24;;;;;;;50.67;25.45;;;11.10;99.90;;;;;;4958628;28;20030;-79
2024/03/22 07:32:51;;;;;;;46.97;27.50;;;11.20;99.90;;;;;;4962509;28;20027;-79
2024/03/22 07:35:17;;;;;;;47.22;26.63;;;11.20;99.90;;;;;;4965747;28;20023;-79
2024/03/22 07:37:42;;;;;;;51.22;26.65;;;11.40;99.90;;;;;;4962349;28;20056;-79
2024/03/22 07:40:08;;;;;;;47.67;26.17;;;11.40;99.90;;;;;;4967922;28;20055;-78
2024/03/22 07:42:34;;;;;;;44.08;26.05;;;11.40;99.90;;;;;;4975962;28;20020;-79
2024/03/22 07:45:00;;;;;;;47.25;26.80;;;11.50;99.90;;;;;;4967995;28;20027;-79
2024/03/22 07:47:25;;;;;;;46.05;26.08;;;11.60;99.90;;;;;;4972133;28;20035;-79
2024/03/22 07:49:51;;;;;;;39.20;23.75;;;11.60;99.90;;;;;;4962568;28;20057;-80
2024/03/22 07:52:17;;;;;;;42.83;24.13;;;11.60;99.90;;;;;;4984430;28;20061;-80
2024/03/22 07:54:43;;;;;;;46.92;24.42;;;11.70;99.90;;;;;;4982600;28;20019;-79
2024/03/22 07:57:10;;;;;;;40.47;24.38;;;11.70;99.90;;;;;;4958646;28;20038;-81
2024/03/22 07:59:39;;;;;;;43.47;24.17;;;11.80;99.90;;;;;;4965537;28;20398;-78
2024/03/22 08:02:05;;;;;;;37.33;23.15;;;11.90;99.90;;;;;;4963591;28;20656;-79
2024/03/22 08:04:31;;;;;;;39.33;22.77;;;11.90;99.90;;;;;;4968825;28;20023;-81
2024/03/22 08:06:57;;;;;;;46.85;24.25;;;12.00;99.90;;;;;;4952120;28;20498;-80
2024/03/22 08:09:23;;;;;;;38.80;22.48;;;12.10;99.90;;;;;;4958678;28;20023;-80
2024/03/22 08:11:48;;;;;;;41.70;22.98;;;12.10;99.90;;;;;;4963597;28;20446;-79
2024/03/22 08:14:14;;;;;;;41.17;22.95;;;12.10;99.90;;;;;;4960498;28;20039;-80
2024/03/22 08:16:43;;;;;;;44.58;25.30;;;12.00;99.90;;;;;;4958435;28;20049;-82
2024/03/22 08:19:09;;;;;;;44.03;23.35;;;12.00;99.90;;;;;;4961124;28;20034;-82
2024/03/22 08:21:36;;;;;;;38.63;24.13;;;12.00;99.90;;;;;;4963488;28;20015;-80
2024/03/22 08:24:05;;;;;;;41.70;22.23;;;12.00;99.90;;;;;;4970370;28;20070;-80
2024/03/22 08:26:31;;;;;;;41.17;21.55;;;12.00;99.90;;;;;;4968952;28;20069;-81
2024/03/22 08:28:57;;;;;;;43.83;23.27;;;12.00;99.90;;;;;;4965187;28;20054;-81
2024/03/22 08:31:25;;;;;;;41.13;22.83;;;12.00;99.90;;;;;;4982382;28;20104;-82
2024/03/22 08:33:54;;;;;;;43.75;24.65;;;12.00;99.90;;;;;;4964073;28;20031;-81
2024/03/22 08:36:20;;;;;;;41.33;22.42;;;12.00;99.90;;;;;;4966055;28;20513;-81
2024/03/22 08:38:46;;;;;;;38.97;22.90;;;11.90;99.90;;;;;;4970390;28;20027;-81
2024/03/22 08:41:11;;;;;;;41.28;23.35;;;11.90;99.90;;;;;;4960520;28;20027;-81
2024/03/22 08:43:37;;;;;;;45.10;23.85;;;11.90;99.90;;;;;;4958321;28;20023;-81
2024/03/22 08:46:03;;;;;;;47.70;22.77;;;11.90;99.90;;;;;;4972373;28;20023;-81
2024/03/22 08:48:29;;;;;;;39.22;24.23;;;11.90;99.90;;;;;;4986795;28;20027;-81
2024/03/22 08:50:55;;;;;;;38.15;21.45;;;11.90;99.90;;;;;;4967555;28;20448;-81
2024/03/22 08:53:21;;;;;;;40.47;24.10;;;11.90;99.90;;;;;;4983277;28;20043;-83
2024/03/22 08:55:50;;;;;;;41.00;23.55;;;11.90;99.90;;;;;;4976247;28;20031;-80
2024/03/22 08:58:17;;;;;;;40.05;22.27;;;11.90;99.90;;;;;;4985736;28;20027;-81
2024/03/22 09:00:44;;;;;;;37.60;22.98;;;11.90;99.90;;;;;;4967396;28;20020;-82
2024/03/22 09:03:10;;;;;;;37.95;22.30;;;12.00;99.90;;;;;;4991259;28;20483;-80
2024/03/22 09:05:38;;;;;;;43.20;23.52;;;12.10;99.90;;;;;;4965492;28;20027;-82
2024/03/22 09:08:07;;;;;;;38.22;23.33;;;12.10;99.90;;;;;;4962077;28;20037;-81
2024/03/22 09:10:33;;;;;;;34.20;21.05;;;12.10;99.90;;;;;;4978650;28;20031;-82
2024/03/22 09:12:59;;;;;;;43.05;22.20;;;12.20;99.90;;;;;;4973486;28;20110;-81
2024/03/22 09:15:25;;;;;;;39.78;23.17;;;12.20;99.90;;;;;;4952524;28;20526;-83
2024/03/22 09:17:59;;;;;;;36.97;21.90;;;12.30;99.90;;;;;;4975265;28;20031;-83
2024/03/22 09:20:25;;;;;;;36.22;21.65;;;12.50;99.90;;;;;;4977312;28;20541;-83
2024/03/22 09:22:53;;;;;;;33.97;21.20;;;12.60;99.90;;;;;;4967195;28;20023;-83
2024/03/22 09:25:19;;;;;;;36.45;22.67;;;12.70;99.90;;;;;;4962028;28;20027;-82
2024/03/22 09:27:45;;;;;;;38.58;21.15;;;12.80;99.90;;;;;;4971850;28;20034;-84
2024/03/22 09:30:12;;;;;;;31.30;20.38;;;13.00;99.90;;;;;;4973275;28;20031;-82
2024/03/22 09:32:43;;;;;;;41.53;23.38;;;13.00;99.90;;;;;;4977798;28;20090;-82
2024/03/22 09:35:10;;;;;;;37.00;22.38;;;13.10;99.90;;;;;;4978733;28;20027;-82
2024/03/22 09:37:36;;;;;;;40.70;22.88;;;13.10;99.90;;;;;;4983140;28;20482;-84
2024/03/22 09:40:07;;;;;;;42.28;22.85;;;13.10;99.90;;;;;;4974936;28;20030;-82
2024/03/22 09:42:33;;;;;;;39.80;22.40;;;13.00;99.90;;;;;;4974468;28;20043;-85
2024/03/22 09:45:02;;;;;;;35.05;22.48;;;13.00;99.90;;;;;;4973097;28;20026;-83
2024/03/22 09:47:28;;;;;;;40.10;22.52;;;13.00;99.90;;;;;;4972149;28;20072;-83
2024/03/22 09:49:56;;;;;;;41.47;22.70;;;12.80;99.90;;;;;;4985081;28;20024;-81
2024/03/22 09:52:22;;;;;;;35.20;20.33;;;12.70;99.90;;;;;;4974872;28;20029;-80
2024/03/22 09:54:48;;;;;;;38.13;23.48;;;12.80;99.90;;;;;;4972500;28;20022;-83
2024/03/22 09:57:27;;;;;;;39.65;22.75;;;12.80;99.90;;;;;;4975789;28;20026;-80
2024/03/22 09:59:54;;;;;;;38.67;22.98;;;12.70;99.90;;;;;;4983381;28;20023;-79
2024/03/22 10:02:22;;;;;;;41.40;23.27;;;12.70;99.90;;;;;;4987893;28;20028;-79
2024/03/22 10:04:48;;;;;;;40.38;22.45;;;12.60;99.90;;;;;;4967016;28;20035;-80
2024/03/22 10:07:19;;;;;;;45.72;24.45;;;12.60;99.90;;;;;;4993728;28;20149;-80
2024/03/22 10:09:47;;;;;;;37.42;22.08;;;12.50;99.90;;;;;;4973225;28;20054;-79
2024/03/22 10:12:16;;;;;;;39.88;22.55;;;12.50;99.90;;;;;;4976825;28;20031;-80
2024/03/22 10:14:45;;;;;;;41.42;22.98;;;12.50;99.90;;;;;;4959498;28;20294;-77
2024/03/22 10:17:10;;;;;;;41.20;22.45;;;12.50;99.90;;;;;;4956595;28;20041;-76
2024/03/22 10:19:37;;;;;;;36.03;21.85;;;12.50;99.90;;;;;;4976986;28;20105;-75
2024/03/22 10:22:05;;;;;;;41.83;22.70;;;12.40;99.90;;;;;;4984352;28;20026;-75
2024/03/22 10:24:33;;;;;;;38.47;23.25;;;12.30;99.90;;;;;;4957972;28;20633;-79
2024/03/22 10:27:02;;;;;;;37.63;21.50;;;12.30;99.90;;;;;;4968878;28;20031;-79
2024/03/22 10:29:28;;;;;;;41.37;22.40;;;12.30;99.90;;;;;;4970205;28;20406;-75
2024/03/22 10:31:55;;;;;;;45.80;23.88;;;12.40;99.90;;;;;;4975527;28;20118;-74
2024/03/22 10:34:24;;;;;;;38.38;22.73;;;12.30;99.90;;;;;;4968392;28;20643;-76
2024/03/22 10:36:50;;;;;;;38.08;22.58;;;12.40;99.90;;;;;;4972025;28;20038;-75
2024/03/22 10:39:18;;;;;;;39.88;21.67;;;12.40;99.90;;;;;;4973030;28;20027;-75
2024/03/22 10:41:50;;;;;;;40.08;23.00;;;12.60;99.90;;;;;;4970366;28;20451;-75
2024/03/22 10:44:16;;;;;;;38.38;22.08;;;12.70;99.90;;;;;;4963499;28;20019;-75
2024/03/22 10:46:45;;;;;;;36.53;21.58;;;12.80;99.90;;;;;;4961643;28;20042;-76
2024/03/22 10:49:20;;;;;;;38.65;21.50;;;13.10;99.90;;;;;;4974229;28;20074;-75
2024/03/22 10:51:54;;;;;;;37.85;21.17;;;13.40;99.90;;;;;;4969778;28;20046;-76
2024/03/22 10:54:24;;;;;;;38.35;21.40;;;13.60;99.90;;;;;;4964447;28;20037;-76
2024/03/22 10:56:51;;;;;;;36.47;21.07;;;13.70;99.90;;;;;;4986609;28;20034;-75
2024/03/22 10:59:21;;;;;;;37.83;20.83;;;13.80;99.90;;;;;;4972884;28;20321;-76
2024/03/22 11:01:50;;;;;;;;;;;13.70;99.90;;;;;;4964159;28;20023;-76
2024/03/22 11:04:30;;;;;;;39.50;21.02;;;13.80;99.90;;;;;;4965879;28;19907;-75
2024/03/22 11:07:00;;;;;;;28.67;18.40;;;13.70;99.90;;;;;;4957490;28;20035;-75
2024/03/22 11:09:26;;;;;;;28.83;18.90;;;13.80;99.90;;;;;;4965795;28;20050;-75
2024/03/22 11:11:53;;;;;;;32.97;19.23;;;13.80;99.90;;;;;;4954845;28;20034;-75
2024/03/22 11:14:24;;;;;;;32.35;19.58;;;13.70;99.90;;;;;;4966677;28;20043;-75
2024/03/22 11:16:50;;;;;;;33.05;19.33;;;13.70;99.90;;;;;;4962156;28;20106;-76
2024/03/22 11:19:16;;;;;;;31.77;18.95;;;13.80;99.90;;;;;;4972351;28;20023;-76
2024/03/22 11:21:42;;;;;;;33.08;20.40;;;13.90;99.90;;;;;;4959830;28;20031;-76
2024/03/22 11:24:08;;;;;;;30.08;17.63;;;13.90;99.90;;;;;;4966761;28;20043;-76
2024/03/22 11:26:37;;;;;;;29.35;17.75;;;13.90;99.90;;;;;;4967116;28;20149;-75
2024/03/22 11:29:05;;;;;;;32.05;18.70;;;13.90;99.90;;;;;;4957751;28;20031;-76
2024/03/22 11:31:34;;;;;;;23.60;15.95;;;14.00;99.90;;;;;;4956471;28;20532;-75
2024/03/22 11:34:02;;;;;;;25.17;15.45;;;14.10;99.90;;;;;;4951821;28;20494;-75
2024/03/22 11:36:29;;;;;;;25.25;15.85;;;14.10;99.90;;;;;;4953512;28;20390;-76
2024/03/22 11:38:54;;;;;;;32.33;16.85;;;14.10;99.90;;;;;;4957294;28;20024;-75
2024/03/22 11:41:27;;;;;;;23.80;16.25;;;14.10;99.90;;;;;;4962339;28;20030;-75
2024/03/22 11:43:53;;;;;;;32.88;16.08;;;14.10;99.90;;;;;;4951573;28;20457;-75
2024/03/22 11:46:22;;;;;;;30.38;15.98;;;14.00;99.90;;;;;;4955469;28;20066;-75
2024/03/22 11:48:57;;;;;;;25.10;15.18;;;13.90;99.90;;;;;;4964997;28;20478;-76
2024/03/22 11:51:26;;;;;;;28.80;15.25;;;13.90;99.90;;;;;;4979490;28;20089;-76
2024/03/22 11:53:56;;;;;;;32.38;15.95;;;13.90;99.90;;;;;;4954994;28;20406;-76
2024/03/22 11:56:22;;;;;;;21.55;14.02;;;13.80;99.90;;;;;;4962000;28;20378;-76
2024/03/22 11:58:48;;;;;;;24.55;14.90;;;13.90;99.90;;;;;;4962074;28;20014;-77
2024/03/22 12:01:19;;;;;;;25.13;14.40;;;14.10;99.90;;;;;;4965828;28;20026;-78
2024/03/22 12:03:49;;;;;;;24.70;14.82;;;14.50;99.90;;;;;;4967249;28;20020;-78
2024/03/22 12:06:18;;;;;;;21.42;14.07;;;14.80;99.90;;;;;;4958190;28;20042;-78
2024/03/22 12:08:44;;;;;;;22.17;12.90;;;15.10;99.90;;;;;;4957537;28;20038;-76
2024/03/22 12:11:14;;;;;;;20.17;13.50;;;15.10;99.90;;;;;;4959245;28;20031;-76
2024/03/22 12:13:40;;;;;;;26.00;13.50;;;15.20;99.90;;;;;;4975780;28;20505;-75
2024/03/22 12:16:07;;;;;;;19.17;12.35;;;15.20;99.90;;;;;;4968941;28;20310;-76
2024/03/22 12:18:43;;;;;;;22.52;12.73;;;15.30;99.90;;;;;;4954774;28;20023;-74
2024/03/22 12:21:08;;;;;;;19.77;12.80;;;15.10;99.90;;;;;;4956435;28;20023;-75
2024/03/22 12:23:34;;;;;;;20.60;12.75;;;15.00;99.90;;;;;;4969572;28;20019;-75
2024/03/22 12:26:00;;;;;;;19.75;12.35;;;15.00;99.90;;;;;;4958892;28;20027;-76
2024/03/22 12:28:26;;;;;;;20.13;13.07;;;15.00;99.90;;;;;;4968569;28;20054;-76
2024/03/22 12:30:52;;;;;;;19.27;12.93;;;15.10;99.90;;;;;;4963861;28;20023;-76
2024/03/22 12:33:18;;;;;;;19.00;12.73;;;15.20;99.90;;;;;;4955403;28;20019;-76